createdAt,value
2024-05-09T00:00:44.826Z,9.70
2024-05-09T00:03:12.471Z,9.30
2024-05-09T00:05:41.066Z,8.82
2024-05-09T00:08:08.698Z,9.85
2024-05-09T00:10:38.099Z,8.73
2024-05-09T00:13:10.238Z,9.48
2024-05-09T00:15:37.803Z,9.55
2024-05-09T00:18:06.623Z,10.32
2024-05-09T00:20:38.933Z,9.15
2024-05-09T00:23:08.717Z,8.18
2024-05-09T00:25:36.047Z,9.93
2024-05-09T00:28:03.123Z,10.32
2024-05-09T00:30:35.701Z,9.90
2024-05-09T00:33:05.380Z,10.50
2024-05-09T00:35:33.565Z,9.98
2024-05-09T00:38:00.864Z,11.15
2024-05-09T00:40:39.040Z,10.98
2024-05-09T00:43:08.749Z,12.13
2024-05-09T00:45:38.293Z,10.32
2024-05-09T00:48:08.484Z,10.10
2024-05-09T00:50:40.199Z,10.82
2024-05-09T00:53:09.906Z,11.23
2024-05-09T00:55:38.730Z,9.43
2024-05-09T00:58:09.034Z,10.93
2024-05-09T01:00:40.647Z,9.85
2024-05-09T01:03:10.356Z,10.40
2024-05-09T01:05:39.685Z,10.50
2024-05-09T01:08:07.813Z,10.95
2024-05-09T01:10:36.062Z,9.57
2024-05-09T01:13:04.035Z,11.65
2024-05-09T01:15:31.149Z,9.43
2024-05-09T01:18:03.794Z,9.20
2024-05-09T01:20:39.927Z,11.90
2024-05-09T01:23:14.791Z,12.15
2024-05-09T01:25:43.672Z,10.88
2024-05-09T01:28:10.694Z,11.45
2024-05-09T01:30:38.504Z,10.65
2024-05-09T01:33:08.558Z,9.68
2024-05-09T01:35:37.695Z,10.20
2024-05-09T01:38:05.125Z,10.40
2024-05-09T01:40:38.616Z,9.73
2024-05-09T01:43:07.567Z,10.38
2024-05-09T01:45:34.797Z,10.00
2024-05-09T01:48:02.706Z,11.00
2024-05-09T01:50:38.051Z,10.85
2024-05-09T01:53:08.601Z,10.40
2024-05-09T01:55:38.229Z,10.10
2024-05-09T01:58:05.306Z,10.02
2024-05-09T02:00:39.107Z,10.02
2024-05-09T02:03:10.784Z,9.63
2024-05-09T02:05:39.527Z,11.45
2024-05-09T02:08:07.300Z,10.30
2024-05-09T02:10:34.310Z,9.32
2024-05-09T02:13:03.937Z,9.15
2024-05-09T02:15:30.830Z,10.68
2024-05-09T02:17:57.838Z,11.40
2024-05-09T02:20:33.522Z,9.05
2024-05-09T02:23:05.075Z,9.90
2024-05-09T02:25:32.766Z,9.77
2024-05-09T02:27:59.981Z,10.70
2024-05-09T02:30:38.668Z,11.57
2024-05-09T02:33:09.526Z,10.13
2024-05-09T02:35:37.882Z,11.15
2024-05-09T02:38:05.141Z,9.93
2024-05-09T02:40:37.263Z,10.88
2024-05-09T02:43:06.467Z,9.68
2024-05-09T02:45:36.033Z,9.93
2024-05-09T02:48:03.268Z,12.57
2024-05-09T02:50:37.278Z,11.13
2024-05-09T02:53:06.545Z,8.20
2024-05-09T02:55:34.020Z,10.68
2024-05-09T02:58:00.942Z,10.73
2024-05-09T03:00:36.682Z,7.97
2024-05-09T03:03:12.081Z,11.75
2024-05-09T03:05:41.324Z,10.93
2024-05-09T03:08:08.742Z,9.57
2024-05-09T03:10:38.322Z,10.77
2024-05-09T03:13:06.914Z,10.25
2024-05-09T03:15:33.903Z,9.65
2024-05-09T03:18:01.613Z,8.93
2024-05-09T03:20:34.808Z,10.60
2024-05-09T03:23:03.603Z,9.57
2024-05-09T03:25:31.109Z,10.18
2024-05-09T03:27:58.036Z,13.13
2024-05-09T03:30:35.696Z,9.10
2024-05-09T03:33:10.219Z,9.95
2024-05-09T03:35:39.992Z,11.15
2024-05-09T03:38:06.953Z,12.27
2024-05-09T03:40:33.985Z,10.05
2024-05-09T03:43:00.868Z,9.80
2024-05-09T03:45:27.751Z,9.10
2024-05-09T03:47:54.898Z,9.10
2024-05-09T03:50:29.948Z,10.32
2024-05-09T03:53:03.659Z,11.57
2024-05-09T03:55:30.981Z,12.38
2024-05-09T03:57:57.981Z,10.70
2024-05-09T04:00:31.554Z,11.07
2024-05-09T04:03:07.135Z,10.63
2024-05-09T04:05:36.606Z,10.40
2024-05-09T04:08:06.721Z,9.68
2024-05-09T04:10:35.021Z,9.60
2024-05-09T04:13:03.136Z,9.48
2024-05-09T04:15:30.411Z,9.50
2024-05-09T04:17:57.645Z,10.05
2024-05-09T04:20:34.360Z,9.10
2024-05-09T04:23:11.478Z,8.82
2024-05-09T04:25:40.846Z,12.50
2024-05-09T04:28:07.730Z,9.90
2024-05-09T04:30:38.909Z,10.00
2024-05-09T04:33:11.807Z,10.38
2024-05-09T04:35:42.157Z,9.05
2024-05-09T04:38:12.359Z,9.82
2024-05-09T04:40:39.405Z,9.52
2024-05-09T04:43:07.638Z,8.98
2024-05-09T04:45:34.971Z,9.02
2024-05-09T04:48:02.506Z,10.55
2024-05-09T04:50:36.296Z,10.73
2024-05-09T04:53:06.458Z,9.32
2024-05-09T04:55:38.581Z,9.23
2024-05-09T04:58:08.166Z,10.63
2024-05-09T05:00:37.443Z,9.25
2024-05-09T05:03:08.386Z,9.32
2024-05-09T05:05:42.197Z,10.27
2024-05-09T05:08:11.353Z,8.43
2024-05-09T05:10:40.921Z,8.65
2024-05-09T05:13:18.043Z,10.50
2024-05-09T05:15:46.104Z,10.75
2024-05-09T05:18:14.665Z,11.77
2024-05-09T05:20:41.792Z,10.00
2024-05-09T05:23:10.917Z,11.35
2024-05-09T05:25:40.512Z,11.13
2024-05-09T05:28:07.654Z,12.40
2024-05-09T05:30:35.509Z,13.05
2024-05-09T05:33:02.662Z,13.02
2024-05-09T05:35:29.940Z,12.27
2024-05-09T05:37:57.028Z,13.90
2024-05-09T05:40:32.728Z,11.38
2024-05-09T05:43:07.278Z,13.95
2024-05-09T05:45:34.229Z,16.40
2024-05-09T05:48:03.966Z,18.75
2024-05-09T05:50:35.918Z,16.85
2024-05-09T05:53:06.116Z,17.50
2024-05-09T05:55:33.190Z,15.40
2024-05-09T05:58:01.183Z,16.33
2024-05-09T06:00:37.847Z,13.90
2024-05-09T06:03:07.419Z,17.25
2024-05-09T06:05:35.679Z,15.30
2024-05-09T06:08:02.744Z,15.20
2024-05-09T06:10:37.451Z,19.63
2024-05-09T06:13:07.056Z,14.80
2024-05-09T06:15:36.445Z,17.33
2024-05-09T06:18:05.758Z,17.05
2024-05-09T06:20:36.485Z,16.05
2024-05-09T06:23:05.450Z,15.15
2024-05-09T06:25:32.643Z,15.05
2024-05-09T06:27:59.942Z,15.75
2024-05-09T06:30:35.328Z,15.82
2024-05-09T06:33:11.266Z,15.05
2024-05-09T06:35:40.541Z,15.48
2024-05-09T06:38:10.370Z,13.82
2024-05-09T06:40:41.129Z,13.15
2024-05-09T06:43:11.192Z,13.65
2024-05-09T06:45:39.667Z,13.00
2024-05-09T06:48:10.382Z,11.20
2024-05-09T06:50:39.245Z,11.95
2024-05-09T06:53:07.483Z,12.98
2024-05-09T06:55:34.656Z,12.57
2024-05-09T06:58:01.639Z,15.23
2024-05-09T07:00:35.743Z,11.90
2024-05-09T07:03:12.038Z,11.35
2024-05-09T07:05:40.531Z,11.45
2024-05-09T07:08:07.906Z,12.38
2024-05-09T07:10:36.457Z,10.82
2024-05-09T07:13:08.046Z,11.80
2024-05-09T07:15:34.957Z,10.63
2024-05-09T07:18:07.867Z,9.85
2024-05-09T07:20:37.480Z,11.10
2024-05-09T07:23:05.105Z,10.00
2024-05-09T07:25:32.286Z,9.52
2024-05-09T07:27:59.352Z,9.07
2024-05-09T07:30:33.051Z,11.00
2024-05-09T07:33:02.562Z,9.75
2024-05-09T07:35:30.577Z,11.68
2024-05-09T07:38:00.441Z,10.20
2024-05-09T07:40:35.065Z,10.30
2024-05-09T07:43:04.178Z,9.68
2024-05-09T07:45:47.964Z,11.27
2024-05-09T07:55:55.710Z,8.85
2024-05-09T07:58:27.025Z,11.00
2024-05-09T08:00:54.407Z,8.98
2024-05-09T08:03:21.417Z,9.85
2024-05-09T08:05:48.352Z,8.88
2024-05-09T08:08:15.323Z,10.63
2024-05-09T08:10:44.840Z,11.73
2024-05-09T08:13:11.850Z,8.27
2024-05-09T08:15:39.289Z,7.38
2024-05-09T08:18:08.118Z,7.78
2024-05-09T08:20:37.640Z,7.68
2024-05-09T08:23:04.926Z,7.03
2024-05-09T08:25:31.822Z,6.47
2024-05-09T08:28:01.333Z,6.47
2024-05-09T08:30:33.820Z,8.02
2024-05-09T08:33:04.994Z,8.52
2024-05-09T08:35:32.438Z,8.48
2024-05-09T08:37:59.530Z,8.88
2024-05-09T08:40:33.741Z,8.30
2024-05-09T08:43:08.226Z,8.73
2024-05-09T08:45:36.766Z,7.65
2024-05-09T08:48:07.782Z,9.25
2024-05-09T08:50:39.172Z,8.18
2024-05-09T08:53:08.635Z,9.00
2024-05-09T08:55:40.207Z,7.70
2024-05-09T08:58:15.435Z,7.60
2024-05-09T09:00:44.208Z,8.20
2024-05-09T09:03:15.315Z,8.00
2024-05-09T09:05:49.518Z,7.85
2024-05-09T09:08:16.661Z,7.82
2024-05-09T09:10:44.941Z,7.03
2024-05-09T09:13:14.663Z,8.27
2024-05-09T09:15:47.106Z,7.57
2024-05-09T09:18:15.877Z,8.75
2024-05-09T09:20:43.143Z,8.02
2024-05-09T09:23:10.154Z,8.43
2024-05-09T09:25:39.354Z,7.18
2024-05-09T09:28:07.081Z,9.25
2024-05-09T09:30:39.250Z,8.93
2024-05-09T09:33:07.972Z,10.02
2024-05-09T09:35:38.594Z,8.88
2024-05-09T09:38:07.113Z,8.10
2024-05-09T09:40:39.054Z,9.27
2024-05-09T09:43:19.401Z,8.90
2024-05-09T09:45:50.342Z,9.07
2024-05-09T09:48:17.754Z,9.95
2024-05-09T09:50:45.679Z,8.60
2024-05-09T09:53:13.800Z,9.20
2024-05-09T09:55:42.053Z,10.10
2024-05-09T09:58:13.254Z,9.57
2024-05-09T10:00:41.810Z,9.73
2024-05-09T10:03:11.570Z,10.45
2024-05-09T10:05:40.483Z,10.43
2024-05-09T10:08:10.768Z,7.93
2024-05-09T10:10:38.259Z,8.63
2024-05-09T10:13:06.702Z,7.13
2024-05-09T10:15:45.139Z,8.63
2024-05-09T10:18:15.051Z,7.32
2024-05-09T10:20:42.992Z,6.78
2024-05-09T10:23:23.772Z,6.78
2024-05-09T10:25:58.099Z,7.30
2024-05-09T10:28:28.412Z,6.57
2024-05-09T10:31:03.124Z,6.72
2024-05-09T10:33:39.498Z,6.03
2024-05-09T10:36:13.646Z,5.43
2024-05-09T10:38:41.092Z,5.80
2024-05-09T10:41:08.589Z,6.97
2024-05-09T10:43:39.028Z,7.00
2024-05-09T10:46:06.551Z,7.60
2024-05-09T10:51:04.122Z,5.60
2024-05-09T10:53:31.401Z,5.85
2024-05-09T10:55:59.408Z,7.80
2024-05-09T10:58:26.908Z,6.18
2024-05-09T11:00:55.611Z,6.85
2024-05-09T11:03:23.724Z,8.05
2024-05-09T11:05:51.332Z,9.65
2024-05-09T11:08:24.452Z,10.30
2024-05-09T11:10:53.048Z,6.97
2024-05-09T11:13:29.714Z,7.80
2024-05-09T11:15:56.817Z,8.45
2024-05-09T11:18:26.628Z,7.03
2024-05-09T11:20:55.906Z,7.70
2024-05-09T11:23:27.460Z,7.75
2024-05-09T11:25:55.917Z,6.18
2024-05-09T11:28:24.215Z,9.73
2024-05-09T11:30:51.608Z,8.20
2024-05-09T11:33:19.558Z,6.10
2024-05-09T11:35:47.302Z,6.57
2024-05-09T11:38:14.312Z,9.02
2024-05-09T11:40:44.211Z,9.13
2024-05-09T11:43:11.192Z,7.93
2024-05-09T11:45:38.096Z,9.25
2024-05-09T11:48:05.763Z,7.32
2024-05-09T11:50:35.736Z,8.63
2024-05-09T11:53:03.327Z,8.80
2024-05-09T11:55:30.767Z,9.27
2024-05-09T11:58:00.293Z,8.02
2024-05-09T12:00:34.122Z,9.32
2024-05-09T12:03:05.614Z,9.80
2024-05-09T12:05:34.105Z,10.60
2024-05-09T12:08:01.897Z,10.38
2024-05-09T12:10:33.516Z,11.75
2024-05-09T12:13:06.798Z,9.45
2024-05-09T12:15:36.415Z,8.38
2024-05-09T12:18:05.346Z,11.75
2024-05-09T12:20:37.382Z,11.10
2024-05-09T12:23:06.815Z,10.65
2024-05-09T12:25:34.132Z,11.40
2024-05-09T12:28:01.373Z,9.25
2024-05-09T12:30:36.727Z,10.13
2024-05-09T12:33:07.426Z,9.50
2024-05-09T12:38:01.325Z,9.55
2024-05-09T12:40:35.642Z,11.23
2024-05-09T12:43:06.299Z,11.70
2024-05-09T12:45:36.038Z,12.85
2024-05-09T12:48:04.529Z,10.32
2024-05-09T12:50:33.872Z,11.43
2024-05-09T12:53:02.453Z,11.23
2024-05-09T12:55:34.267Z,10.57
2024-05-09T12:58:08.825Z,10.20
2024-05-09T13:00:38.582Z,9.23
2024-05-09T13:03:06.301Z,12.75
2024-05-09T13:05:33.577Z,10.43
2024-05-09T13:08:03.497Z,8.70
2024-05-09T13:10:32.809Z,12.00
2024-05-09T13:13:01.748Z,10.82
2024-05-09T13:15:30.049Z,11.18
2024-05-09T13:18:02.641Z,11.35
2024-05-09T13:20:33.797Z,10.02
2024-05-09T13:23:03.934Z,11.70
2024-05-09T13:25:31.132Z,12.48
2024-05-09T13:27:58.486Z,13.98
2024-05-09T13:30:30.213Z,10.48
2024-05-09T13:33:08.960Z,10.60
2024-05-09T13:35:36.315Z,11.77
2024-05-09T13:38:04.595Z,9.95
2024-05-09T13:40:34.912Z,10.43
2024-05-09T13:43:03.663Z,10.68
2024-05-09T13:45:30.784Z,13.43
2024-05-09T13:47:58.080Z,11.38
2024-05-09T13:50:34.449Z,10.32
2024-05-09T13:53:04.656Z,11.65
2024-05-09T13:55:31.840Z,10.10
2024-05-09T13:57:58.936Z,10.90
2024-05-09T14:00:38.061Z,9.63
2024-05-09T14:03:11.938Z,11.10
2024-05-09T14:05:41.700Z,11.52
2024-05-09T14:08:08.985Z,10.57
2024-05-09T14:10:36.157Z,11.07
2024-05-09T14:13:03.234Z,11.05
2024-05-09T14:15:30.404Z,10.77
2024-05-09T14:17:57.489Z,10.48
2024-05-09T14:20:30.908Z,11.45
2024-05-09T14:23:01.636Z,9.35
2024-05-09T14:25:30.018Z,10.05
2024-05-09T14:27:57.402Z,11.30
2024-05-09T14:30:31.180Z,13.25
2024-05-09T14:33:04.473Z,10.38
2024-05-09T14:35:31.630Z,9.88
2024-05-09T14:38:01.365Z,10.90
2024-05-09T14:40:38.918Z,9.95
2024-05-09T14:43:10.721Z,11.18
2024-05-09T14:45:37.819Z,11.98
2024-05-09T14:48:05.452Z,12.25
2024-05-09T14:50:36.923Z,11.40
2024-05-09T14:53:10.596Z,10.55
2024-05-09T14:55:39.574Z,9.80
2024-05-09T14:58:08.029Z,10.32
2024-05-09T15:00:38.379Z,8.55
2024-05-09T15:03:07.002Z,11.18
2024-05-09T15:05:34.109Z,12.20
2024-05-09T15:08:01.071Z,11.70
2024-05-09T15:10:34.864Z,11.32
2024-05-09T15:13:04.034Z,11.02
2024-05-09T15:15:31.511Z,12.05
2024-05-09T15:17:59.004Z,12.50
2024-05-09T15:20:33.225Z,11.48
2024-05-09T15:23:03.348Z,11.60
2024-05-09T15:25:33.095Z,12.48
2024-05-09T15:28:00.156Z,10.60
2024-05-09T15:30:31.458Z,13.30
2024-05-09T15:33:01.112Z,12.25
2024-05-09T15:35:28.369Z,14.50
2024-05-09T15:37:55.667Z,13.90
2024-05-09T15:40:31.469Z,15.00
2024-05-09T15:43:09.897Z,15.30
2024-05-09T15:45:40.295Z,17.17
2024-05-09T15:48:09.748Z,16.35
2024-05-09T15:50:40.745Z,16.75
2024-05-09T15:53:10.857Z,16.48
2024-05-09T15:55:38.236Z,15.13
2024-05-09T15:58:08.221Z,16.60
2024-05-09T16:00:40.183Z,18.80
2024-05-09T16:03:10.257Z,16.60
2024-05-09T16:05:38.025Z,14.52
2024-05-09T16:08:06.432Z,14.40
2024-05-09T16:13:03.392Z,18.17
2024-05-09T16:15:33.523Z,18.40
2024-05-09T16:18:00.993Z,18.85
2024-05-09T16:20:37.331Z,17.83
2024-05-09T16:23:08.275Z,19.95
2024-05-09T16:28:04.831Z,17.95
2024-05-09T16:30:36.672Z,20.52
2024-05-09T16:33:05.143Z,17.27
2024-05-09T16:35:32.898Z,17.33
2024-05-09T16:38:02.102Z,17.23
2024-05-09T16:40:36.518Z,18.10
2024-05-09T16:43:07.426Z,20.92
2024-05-09T16:45:37.672Z,17.73
2024-05-09T16:48:06.435Z,18.00
2024-05-09T16:50:35.341Z,19.40
2024-05-09T16:53:03.966Z,20.05
2024-05-09T16:57:58.600Z,17.83
2024-05-09T17:00:35.751Z,20.45
2024-05-09T17:03:13.751Z,19.48
2024-05-09T17:05:42.674Z,20.25
2024-05-09T17:08:09.999Z,21.25
2024-05-09T17:10:37.228Z,18.80
2024-05-09T17:13:06.696Z,21.42
2024-05-09T17:15:35.513Z,18.90
2024-05-09T17:18:03.675Z,19.67
2024-05-09T17:20:36.177Z,21.85
2024-05-09T17:23:12.118Z,22.20
2024-05-09T17:25:39.567Z,21.00
2024-05-09T17:28:08.308Z,19.35
2024-05-09T17:30:38.181Z,18.08
2024-05-09T17:33:09.106Z,21.73
2024-05-09T17:35:39.725Z,18.52
2024-05-09T17:38:07.122Z,18.88
2024-05-09T17:40:36.743Z,18.05
2024-05-09T17:43:06.687Z,18.15
2024-05-09T17:45:37.282Z,18.13
2024-05-09T17:48:04.991Z,19.13
2024-05-09T17:50:35.873Z,18.38
2024-05-09T17:53:07.993Z,19.15
2024-05-09T17:55:35.502Z,18.35
2024-05-09T17:58:03.229Z,19.75
2024-05-09T18:00:37.688Z,19.92
2024-05-09T18:03:08.387Z,18.77
2024-05-09T18:05:37.000Z,21.02
2024-05-09T18:08:08.267Z,19.27
2024-05-09T18:10:38.547Z,21.25
2024-05-09T18:13:07.426Z,18.50
2024-05-09T18:15:38.067Z,20.88
2024-05-09T18:18:06.582Z,18.27
2024-05-09T18:23:16.629Z,19.67
2024-05-09T18:25:44.974Z,19.65
2024-05-09T18:28:11.971Z,20.73
2024-05-09T18:30:39.991Z,16.08
2024-05-09T18:33:10.364Z,16.83
2024-05-09T18:35:37.961Z,19.27
2024-05-09T18:38:05.709Z,19.40
2024-05-09T18:40:37.699Z,17.50
2024-05-09T18:43:07.957Z,19.52
2024-05-09T18:45:36.592Z,17.40
2024-05-09T18:48:08.177Z,19.85
2024-05-09T18:50:38.843Z,17.35
2024-05-09T18:53:08.534Z,18.75
2024-05-09T18:55:38.181Z,19.45
2024-05-09T18:58:05.476Z,21.20
2024-05-09T19:00:36.425Z,18.30
2024-05-09T19:03:09.229Z,19.23
2024-05-09T19:05:39.032Z,18.27
2024-05-09T19:08:07.597Z,20.45
2024-05-09T19:10:38.138Z,21.60
2024-05-09T19:13:09.300Z,19.08
2024-05-09T19:18:07.658Z,18.17
2024-05-09T19:20:36.230Z,18.73
2024-05-09T19:23:05.766Z,16.98
2024-05-09T19:25:33.046Z,17.08
2024-05-09T19:28:02.957Z,20.27
2024-05-09T19:30:38.082Z,20.70
2024-05-09T19:33:09.306Z,21.35
2024-05-09T19:35:36.934Z,19.45
2024-05-09T19:38:04.879Z,21.35
2024-05-09T19:40:33.795Z,19.55
2024-05-09T19:43:06.002Z,21.58
2024-05-09T19:45:34.286Z,19.67
2024-05-09T19:48:02.440Z,19.20
2024-05-09T19:50:37.338Z,21.67
2024-05-09T19:53:10.220Z,21.42
2024-05-09T19:55:37.649Z,22.58
2024-05-09T19:58:08.355Z,21.17
2024-05-09T20:00:37.887Z,19.48
2024-05-09T20:03:07.438Z,22.50
2024-05-09T20:05:35.022Z,21.38
2024-05-09T20:08:02.376Z,23.95
2024-05-09T20:10:32.741Z,20.45
2024-05-09T20:13:02.329Z,20.85
2024-05-09T20:15:32.130Z,24.20
2024-05-09T20:17:59.311Z,28.30
2024-05-09T20:20:34.978Z,25.52
2024-05-09T20:23:05.442Z,28.08
2024-05-09T20:25:32.369Z,26.13
2024-05-09T20:27:59.297Z,27.55
2024-05-09T20:30:31.949Z,23.77
2024-05-09T20:33:07.730Z,25.88
2024-05-09T20:35:38.364Z,25.88
2024-05-09T20:38:05.574Z,30.38
2024-05-09T20:40:36.738Z,25.08
2024-05-09T20:43:06.895Z,25.67
2024-05-09T20:45:38.093Z,26.23
2024-05-09T20:48:08.924Z,28.70
2024-05-09T20:50:39.983Z,27.75
2024-05-09T20:53:10.129Z,27.02
2024-05-09T20:55:37.201Z,23.92
2024-05-09T20:58:04.556Z,27.13
2024-05-09T21:00:39.478Z,26.88
2024-05-09T21:03:12.944Z,29.52
2024-05-09T21:05:41.041Z,31.92
2024-05-09T21:08:08.290Z,28.45
2024-05-09T21:10:36.241Z,30.08
2024-05-09T21:13:04.297Z,27.55
2024-05-09T21:15:31.895Z,34.42
2024-05-09T21:17:59.384Z,30.10
2024-05-09T21:20:32.463Z,30.45
2024-05-09T21:23:01.436Z,29.17
2024-05-09T21:25:28.790Z,33.28
2024-05-09T21:27:55.930Z,30.35
2024-05-09T21:30:32.392Z,33.33
2024-05-09T21:33:08.417Z,30.08
2024-05-09T21:35:38.378Z,29.40
2024-05-09T21:38:05.615Z,29.13
2024-05-09T21:40:35.280Z,31.92
2024-05-09T21:43:04.166Z,29.38
2024-05-09T21:45:31.426Z,32.72
2024-05-09T21:47:58.548Z,30.85
2024-05-09T21:50:32.476Z,31.23
2024-05-09T21:55:35.416Z,31.02
2024-05-09T21:58:03.250Z,32.88
2024-05-09T22:00:36.357Z,38.78
2024-05-09T22:03:06.544Z,35.17
2024-05-09T22:05:34.016Z,35.88
2024-05-09T22:08:01.232Z,34.25
2024-05-09T22:10:34.723Z,32.95
2024-05-09T22:13:04.036Z,34.78
2024-05-09T22:15:35.017Z,34.30
2024-05-09T22:18:02.053Z,34.10
2024-05-09T22:20:36.169Z,34.90
2024-05-09T22:23:05.774Z,36.75
2024-05-09T22:25:35.354Z,31.80
2024-05-09T22:28:03.240Z,36.53
2024-05-09T22:30:36.221Z,34.28
2024-05-09T22:33:06.587Z,33.90
2024-05-09T22:35:33.911Z,35.38
2024-05-09T22:38:00.794Z,36.08
2024-05-09T22:40:38.520Z,33.05
2024-05-09T22:43:17.001Z,33.17
2024-05-09T22:45:44.479Z,35.65
2024-05-09T22:48:11.567Z,39.22
2024-05-09T22:50:38.601Z,38.38
2024-05-09T22:53:05.615Z,37.50
2024-05-09T22:55:32.619Z,37.17
2024-05-09T22:57:59.625Z,35.45
2024-05-09T23:00:31.909Z,35.67
2024-05-09T23:03:01.381Z,35.03
2024-05-09T23:05:28.833Z,35.05
2024-05-09T23:07:56.010Z,35.67
2024-05-09T23:10:31.024Z,35.83
2024-05-09T23:13:02.479Z,33.03
2024-05-09T23:15:32.160Z,34.50
2024-05-09T23:17:59.514Z,34.88
2024-05-09T23:20:33.951Z,35.90
2024-05-09T23:23:05.384Z,34.97
2024-05-09T23:25:32.445Z,37.28
2024-05-09T23:27:59.583Z,34.53
2024-05-09T23:30:37.024Z,36.40
2024-05-09T23:33:10.582Z,35.97
2024-05-09T23:35:37.835Z,38.13
2024-05-09T23:38:05.181Z,38.40
2024-05-09T23:43:02.363Z,40.40
2024-05-09T23:45:29.339Z,38.22
2024-05-09T23:47:56.366Z,37.72
2024-05-09T23:50:33.617Z,35.35
2024-05-09T23:53:03.737Z,37.42
2024-05-09T23:55:31.436Z,35.45
2024-05-09T23:57:59.089Z,38.33
